CheckWX is a tool to help pilots better visualize weather data.  It is not intended as a substitute for an official pre-flight weather briefing.

14:20:15 UTC

KEZS METAR
Shawano Municipal Airport
Shawano, Wisconsin, USA
Current

5 mins ago

KEZS 221415Z AUTO 05008KT 10SM SCT100 10/04 A3000 RMK AO2 T00990041
Observed
Apr-22 @ 14:15 UTC
Wind
  • 050° at 8 KTS
Visibility
10 SM
Flight Rules
VFR
Cloud Levels
  • Scattered at 10,000' AGL
Temperature
10°C / 50°F
Dewpoint
C / 39°F
Humidity
67%
Altimeter
30" Hg
Pressure
1015.92 hPa
Previous

25 mins ago

KEZS 221355Z AUTO 07007KT 10SM SCT100 10/04 A3003 RMK AO2 LTG DSNT SW T00950035
Observed
Apr-22 @ 13:55 UTC
Wind
  • 070° at 7 KTS
Visibility
10 SM
Flight Rules
VFR
Cloud Levels
  • Scattered at 10,000' AGL
Temperature
10°C / 50°F
Dewpoint
C / 39°F
Humidity
67%
Altimeter
30.03" Hg
Pressure
1016.92 hPa
Previous

45 mins ago

KEZS 221335Z AUTO 08006KT 10SM SCT110 10/04 A3003 RMK AO2 T00960037
Observed
Apr-22 @ 13:35 UTC
Wind
  • 080° at 6 KTS
Visibility
10 SM
Flight Rules
VFR
Cloud Levels
  • Scattered at 11,000' AGL
Temperature
10°C / 50°F
Dewpoint
C / 39°F
Humidity
67%
Altimeter
30.03" Hg
Pressure
1016.92 hPa